Time;durP1;ratioP1;P1;durP2;ratioP2;P2;SDS_P1;SDS_P2;PMS_P1;PMS_P2;Temp;Humidity;BMP_temperature;BMP_pressure;BME280_temperature;BME280_humidity;BME280_pressure;Samples;Min_cycle;Max_cycle;Signal;HPM_P1;HPM_P2
2021/10/22 00:01:41;;;;;;;12.50;1.75;;;;;;;;;;4918659;29;20107;-91
2021/10/22 00:04:34;;;;;;;6.00;1.40;;;;;;;;;;4892031;29;20059;-91
2021/10/22 00:07:43;;;;;;;11.48;1.85;;;;;;;;;;4870264;29;20064;-91
2021/10/22 00:10:27;;;;;;;12.35;1.58;;;;;;;;;;4857126;29;20741;-92
2021/10/22 00:13:10;;;;;;;7.22;1.75;;;;;;;;;;4880064;29;20048;-91
2021/10/22 00:15:43;;;;;;;13.18;1.63;;;;;;;;;;4894503;29;20049;-91
2021/10/22 00:18:51;;;;;;;11.27;1.30;;;;;;;;;;4895606;29;20067;-91
2021/10/22 00:29:05;;;;;;;10.10;1.67;;;;;;;;;;4909001;29;20046;-92
2021/10/22 00:31:40;;;;;;;11.20;1.95;;;;;;;;;;4980586;28;20042;-91
2021/10/22 00:34:16;;;;;;;15.10;2.72;;;;;;;;;;4991333;28;20078;-93
2021/10/22 00:41:20;;;;;;;;;;;;;;;;;;;;;
2021/10/22 00:44:28;;;;;;;15.63;1.98;;;;;;;;;;4996243;28;20132;-92
2021/10/22 00:47:24;;;;;;;13.70;1.63;;;;;;;;;;4982630;28;20057;-91
2021/10/22 00:50:34;;;;;;;14.15;2.03;;;;;;;;;;4952220;29;20058;-91
2021/10/22 00:53:24;;;;;;;10.95;2.50;;;;;;;;;;4937322;29;20451;-92
2021/10/22 00:56:28;;;;;;;7.85;1.30;;;;;;;;;;4900151;29;20056;-92
2021/10/22 01:12:15;;;;;;;17.33;2.10;;;;;;;;;;4912969;29;20062;-91
2021/10/22 01:22:29;;;;;;;11.30;1.92;;;;;;;;;;4932567;29;20486;-91
2021/10/22 01:25:05;;;;;;;15.75;2.38;;;;;;;;;;4912637;29;20871;-92
2021/10/22 01:31:29;;;;;;;;;;;;;;;;;;;;;
2021/10/22 01:34:20;;;;;;;18.40;2.03;;;;;;;;;;5038997;28;20062;-91
2021/10/22 01:36:59;;;;;;;12.18;2.10;;;;;;;;;;5072917;28;20062;-92
2021/10/22 01:39:47;;;;;;;15.85;2.25;;;;;;;;;;5071725;28;20494;-92
2021/10/22 01:43:11;;;;;;;19.05;3.30;;;;;;;;;;5070578;28;20044;-90
2021/10/22 01:57:44;;;;;;;;;;;;;;;;;;;;;
2021/10/22 02:00:07;;;;;;;8.63;1.60;;;;;;;;;;4930808;28;20046;-91
2021/10/22 02:06:34;;;;;;;22.52;1.95;;;;;;;;;;4911419;29;20830;-91
2021/10/22 02:09:35;;;;;;;13.32;3.35;;;;;;;;;;4937601;29;20052;-91
2021/10/22 02:12:18;;;;;;;12.43;2.22;;;;;;;;;;4937645;29;20055;-91
2021/10/22 02:22:14;;;;;;;20.67;2.20;;;;;;;;;;5084433;28;20031;-90
2021/10/22 02:29:05;;;;;;;12.60;2.03;;;;;;;;;;4986458;28;20049;-91
2021/10/22 02:32:15;;;;;;;;;;;;;;;;;;;;;
2021/10/22 02:42:16;;;;;;;10.75;1.90;;;;;;;;;;5018365;28;20480;-90
2021/10/22 02:44:51;;;;;;;5.10;1.60;;;;;;;;;;5015346;28;20449;-92
2021/10/22 02:47:20;;;;;;;11.25;1.85;;;;;;;;;;5014591;28;20409;-91
2021/10/22 02:49:48;;;;;;;12.02;1.67;;;;;;;;;;5015008;28;20450;-91
2021/10/22 02:52:15;;;;;;;7.22;1.90;;;;;;;;;;5009326;28;20045;-91
2021/10/22 02:58:07;;;;;;;15.55;2.65;;;;;;;;;;5013678;28;20057;-91
2021/10/22 03:00:43;;;;;;;13.65;3.00;;;;;;;;;;5012439;28;20136;-90
2021/10/22 03:03:40;;;;;;;13.43;2.75;;;7.50;99.90;;;;;;5014658;28;20913;-91
2021/10/22 03:06:30;;;;;;;12.23;2.35;;;7.70;99.90;;;;;;5059767;28;20446;-91
2021/10/22 03:09:57;;;;;;;;;;;;;;;;;;;;;
2021/10/22 03:12:40;;;;;;;17.52;3.25;;;7.30;99.90;;;;;;5084934;28;20052;-91
2021/10/22 03:21:33;;;;;;;10.75;2.67;;;7.40;99.90;;;;;;5041190;28;20048;-90
2021/10/22 03:24:26;;;;;;;9.45;2.42;;;7.40;99.90;;;;;;5073119;28;20105;-90
2021/10/22 03:27:30;;;;;;;10.40;2.20;;;7.50;99.90;;;;;;5001658;28;20054;-91
2021/10/22 03:30:06;;;;;;;7.10;2.00;;;7.40;99.90;;;;;;5003818;28;20089;-91
2021/10/22 03:32:57;;;;;;;13.27;2.70;;;7.50;99.90;;;;;;4986994;28;20054;-92
2021/10/22 03:35:38;;;;;;;13.05;2.20;;;7.50;99.90;;;;;;4977781;28;20141;-93
2021/10/22 03:38:41;;;;;;;8.02;1.90;;;7.80;99.90;;;;;;5002007;28;20050;-91
2021/10/22 03:44:40;;;;;;;10.65;2.03;;;7.50;99.90;;;;;;4955314;28;20040;-92
2021/10/22 03:47:13;;;;;;;8.90;1.85;;;7.40;99.90;;;;;;5058111;28;20501;-92
2021/10/22 03:49:42;;;;;;;5.82;1.73;;;7.30;99.90;;;;;;5072200;28;20048;-91
2021/10/22 03:52:29;;;;;;;10.48;2.17;;;7.60;99.90;;;;;;5067163;28;20105;-92
2021/10/22 03:55:25;;;;;;;14.82;2.00;;;8.10;99.90;;;;;;5054989;28;20707;-91
2021/10/22 03:57:52;;;;;;;13.10;2.10;;;7.70;99.90;;;;;;5051453;28;20044;-92
2021/10/22 04:00:30;;;;;;;7.43;2.15;;;7.70;99.90;;;;;;5052320;28;20044;-92
2021/10/22 04:02:58;;;;;;;14.40;2.15;;;7.80;99.90;;;;;;5062504;28;21907;-92
2021/10/22 04:05:28;;;;;;;10.55;1.50;;;7.70;99.90;;;;;;5063930;28;20066;-91
2021/10/22 04:08:33;;;;;;;;;;;;;;;;;;;;;
2021/10/22 04:11:15;;;;;;;8.65;1.75;;;8.10;99.90;;;;;;5041921;28;20041;-92
2021/10/22 04:13:58;;;;;;;7.72;1.70;;;;;;;;;;5021437;28;20048;-91
2021/10/22 04:16:52;;;;;;;4.90;1.35;;;;;;;;;;5032841;28;20049;-90
2021/10/22 04:19:19;;;;;;;8.27;1.10;;;;;;;;;;5034069;28;20045;-91
2021/10/22 04:21:46;;;;;;;11.23;1.70;;;;;;;;;;5030945;28;20044;-91
2021/10/22 04:24:13;;;;;;;10.85;2.10;;;;;;;;;;5054891;28;20048;-92
2021/10/22 04:26:41;;;;;;;12.65;1.88;;;;;;;;;;5073280;28;20094;-91
2021/10/22 04:29:47;;;;;;;10.90;1.75;;;;;;;;;;5066239;28;20060;-90
2021/10/22 04:32:50;;;;;;;4.32;1.10;;;;;;;;;;5068454;28;20126;-91
2021/10/22 04:36:13;;;;;;;17.42;2.10;;;;;;;;;;5007746;28;20109;-92
2021/10/22 04:41:37;;;;;;;10.35;1.50;;;;;;;;;;5008666;28;20104;-92
2021/10/22 04:44:11;;;;;;;10.77;1.92;;;;;;;;;;4988755;28;20054;-91
2021/10/22 04:46:44;;;;;;;10.98;2.22;;;;;;;;;;5064716;28;20124;-92
2021/10/22 04:49:14;;;;;;;8.57;1.65;;;;;;;;;;5072344;28;20788;-93
2021/10/22 04:51:43;;;;;;;15.15;1.50;;;;;;;;;;5076386;28;20122;-92
2021/10/22 04:57:50;;;;;;;7.68;1.23;;;;;;;;;;5088582;28;20048;-90
2021/10/22 05:03:40;;;;;;;10.93;1.77;;;;;;;;;;5069549;28;20479;-92
2021/10/22 05:06:10;;;;;;;14.27;2.75;;;;;;;;;;5068815;28;20052;-90
2021/10/22 05:08:46;;;;;;;14.93;1.98;;;;;;;;;;5067894;28;20091;-90
2021/10/22 05:11:45;;;;;;;11.07;2.83;;;;;;;;;;5076781;28;20063;-91
2021/10/22 05:14:12;;;;;;;20.33;1.90;;;;;;;;;;5065035;28;20519;-90
2021/10/22 05:17:00;;;;;;;7.75;1.70;;;;;;;;;;5096331;28;20048;-92
2021/10/22 05:23:08;;;;;;;7.07;1.45;;;;;;;;;;5089581;28;20080;-91
2021/10/22 05:25:46;;;;;;;6.70;1.10;;;;;;;;;;5076356;28;20520;-91
2021/10/22 05:28:16;;;;;;;8.65;1.85;;;;;;;;;;5065896;28;20518;-91
2021/10/22 05:31:13;;;;;;;9.05;1.50;;;;;;;;;;5078580;28;20543;-89
2021/10/22 05:33:55;;;;;;;14.77;1.50;;;;;;;;;;5069499;28;20419;-88
2021/10/22 05:36:23;;;;;;;12.18;1.65;;;;;;;;;;5069986;28;20059;-90
2021/10/22 05:38:52;;;;;;;13.20;2.00;;;;;;;;;;5072989;28;20109;-90
2021/10/22 05:41:19;;;;;;;9.60;1.52;;;;;;;;;;5078792;28;20781;-90
2021/10/22 05:43:58;;;;;;;7.00;1.25;;;;;;;;;;5071742;28;20113;-90
2021/10/22 05:46:33;;;;;;;14.18;1.40;;;;;;;;;;5077998;28;20052;-90
2021/10/22 05:49:00;;;;;;;13.05;2.13;;;7.40;99.90;;;;;;5078812;28;20055;-89
2021/10/22 05:51:41;;;;;;;9.35;1.98;;;7.40;99.90;;;;;;5078732;28;20074;-90
2021/10/22 05:54:08;;;;;;;17.73;1.92;;;7.40;99.90;;;;;;5072199;28;20048;-90
2021/10/22 05:56:35;;;;;;;14.25;1.63;;;7.40;99.90;;;;;;5059912;28;20399;-90
2021/10/22 05:59:02;;;;;;;15.57;1.90;;;7.40;99.90;;;;;;5059146;28;20622;-90
2021/10/22 06:01:32;;;;;;;16.08;1.92;;;7.40;99.90;;;;;;5059068;28;20113;-90
2021/10/22 06:04:03;;;;;;;14.05;1.83;;;7.40;99.90;;;;;;5070501;28;20052;-90
2021/10/22 06:06:33;;;;;;;5.18;1.23;;;7.40;99.90;;;;;;5058436;28;20106;-90
2021/10/22 06:08:59;;;;;;;16.27;2.05;;;7.40;99.90;;;;;;5059685;28;20052;-91
2021/10/22 06:11:27;;;;;;;13.68;1.80;;;7.40;99.90;;;;;;5059719;28;20059;-90
2021/10/22 06:13:54;;;;;;;13.35;1.90;;;7.40;99.90;;;;;;5060201;28;20059;-91
2021/10/22 06:16:22;;;;;;;11.23;1.98;;;7.50;99.90;;;;;;5058515;28;20082;-91
2021/10/22 06:18:51;;;;;;;13.23;1.42;;;7.50;99.90;;;;;;5069065;28;20067;-90
2021/10/22 06:21:32;;;;;;;22.27;3.28;;;7.60;99.90;;;;;;5077672;28;20055;-91
2021/10/22 06:24:03;;;;;;;16.83;2.25;;;7.70;99.90;;;;;;5068381;28;20043;-91
2021/10/22 06:26:36;;;;;;;14.32;2.00;;;7.70;99.90;;;;;;5074362;28;20522;-90
2021/10/22 06:29:05;;;;;;;4.07;1.13;;;7.70;99.90;;;;;;5058027;28;20044;-90
2021/10/22 06:31:32;;;;;;;23.88;2.13;;;7.70;99.90;;;;;;5058432;28;20101;-90
2021/10/22 06:34:00;;;;;;;17.60;1.50;;;7.70;99.90;;;;;;5051470;28;20131;-87
2021/10/22 06:36:27;;;;;;;10.27;1.50;;;7.70;99.90;;;;;;5074312;28;20039;-91
2021/10/22 06:38:54;;;;;;;14.57;1.75;;;7.70;99.90;;;;;;5070823;28;20101;-91
2021/10/22 06:41:21;;;;;;;21.60;2.17;;;7.60;99.90;;;;;;5061685;28;20044;-91
2021/10/22 06:43:50;;;;;;;10.05;1.35;;;7.70;99.90;;;;;;5058940;28;20487;-90
2021/10/22 06:46:17;;;;;;;17.23;2.92;;;7.70;99.90;;;;;;5081094;28;20799;-91
2021/10/22 06:48:45;;;;;;;18.02;1.83;;;7.70;99.90;;;;;;5081584;28;20054;-90
2021/10/22 06:51:15;;;;;;;12.57;1.88;;;7.70;99.90;;;;;;5077901;28;20493;-89
2021/10/22 06:53:44;;;;;;;19.02;2.20;;;7.70;99.90;;;;;;5072055;28;20071;-89
2021/10/22 06:56:10;;;;;;;15.80;2.45;;;7.60;99.90;;;;;;5080569;28;20762;-90
2021/10/22 06:58:37;;;;;;;15.55;1.83;;;7.60;99.90;;;;;;5083117;28;20672;-90
2021/10/22 07:01:06;;;;;;;12.10;1.55;;;7.60;99.90;;;;;;5068487;28;20057;-90
2021/10/22 07:03:40;;;;;;;14.18;2.15;;;7.70;99.90;;;;;;5094793;28;20056;-89
2021/10/22 07:08:54;;;;;;;12.98;1.60;;;7.60;99.90;;;;;;5105185;28;20073;-89
2021/10/22 07:11:23;;;;;;;14.52;2.25;;;7.60;99.90;;;;;;5071250;28;20044;-90
2021/10/22 07:13:55;;;;;;;14.23;2.13;;;7.50;99.90;;;;;;5081596;28;20044;-89
2021/10/22 07:16:27;;;;;;;8.00;1.92;;;7.60;99.90;;;;;;5103928;28;20040;-91
2021/10/22 07:18:56;;;;;;;11.82;2.08;;;7.60;99.90;;;;;;5085149;28;20047;-90
2021/10/22 07:21:23;;;;;;;12.50;2.05;;;7.60;99.90;;;;;;5063930;28;20053;-90
2021/10/22 07:23:51;;;;;;;17.70;1.88;;;7.60;99.90;;;;;;5053911;28;20442;-89
2021/10/22 07:26:19;;;;;;;7.97;2.03;;;7.70;99.90;;;;;;5058551;28;20052;-90
2021/10/22 07:28:47;;;;;;;14.27;2.00;;;7.80;99.90;;;;;;5058418;28;20060;-90
2021/10/22 07:31:14;;;;;;;19.65;2.58;;;7.90;99.90;;;;;;5058635;28;20049;-90
2021/10/22 07:33:43;;;;;;;24.38;2.72;;;8.00;99.90;;;;;;5050528;28;20098;-89
2021/10/22 07:36:14;;;;;;;16.65;2.80;;;7.90;99.90;;;;;;5059816;28;20036;-89
2021/10/22 07:38:43;;;;;;;9.75;2.15;;;7.90;99.90;;;;;;5076627;28;20051;-90
2021/10/22 07:41:12;;;;;;;14.30;2.60;;;7.70;99.90;;;;;;5065267;28;20055;-91
2021/10/22 07:43:39;;;;;;;17.70;2.97;;;7.90;99.90;;;;;;5061530;28;20056;-90
2021/10/22 07:46:07;;;;;;;13.82;3.10;;;7.90;99.90;;;;;;5056989;28;20052;-89
2021/10/22 07:48:35;;;;;;;18.63;2.05;;;8.10;99.90;;;;;;5056498;28;20044;-91
2021/10/22 07:51:03;;;;;;;12.48;2.28;;;8.20;99.90;;;;;;5071921;28;20113;-90
2021/10/22 07:53:30;;;;;;;13.88;2.55;;;8.30;99.90;;;;;;5070451;28;20048;-91
2021/10/22 07:56:01;;;;;;;10.88;1.55;;;8.40;99.90;;;;;;5077344;28;20077;-90
2021/10/22 07:58:28;;;;;;;11.43;2.00;;;8.40;99.90;;;;;;5077031;28;20433;-91
2021/10/22 08:00:56;;;;;;;13.27;2.65;;;8.30;99.90;;;;;;5077077;28;20067;-91
2021/10/22 08:03:25;;;;;;;17.42;2.35;;;8.30;99.90;;;;;;5072992;28;20052;-90
2021/10/22 08:05:52;;;;;;;10.90;1.88;;;8.30;99.90;;;;;;5069996;28;20495;-91
2021/10/22 08:08:19;;;;;;;17.88;2.40;;;8.30;99.90;;;;;;5069473;28;20378;-90
2021/10/22 08:10:46;;;;;;;16.55;2.38;;;8.40;99.90;;;;;;5068236;28;20118;-90
2021/10/22 08:13:13;;;;;;;10.00;1.83;;;8.40;99.90;;;;;;5058177;28;20053;-91
2021/10/22 08:15:45;;;;;;;23.95;3.10;;;8.40;99.90;;;;;;5076112;28;20047;-89
2021/10/22 08:18:13;;;;;;;15.88;2.00;;;8.40;99.90;;;;;;5074990;28;20048;-89
2021/10/22 08:21:15;;;;;;;14.77;2.20;;;8.60;99.90;;;;;;5074073;28;20514;-89
2021/10/22 08:23:33;;;;;;;14.77;2.13;;;8.50;99.90;;;;;;5083953;28;20109;-90
2021/10/22 08:26:00;;;;;;;20.83;3.03;;;8.60;99.90;;;;;;5075548;28;20048;-89
2021/10/22 08:28:30;;;;;;;14.98;2.63;;;8.70;99.90;;;;;;5075411;28;20484;-88
2021/10/22 08:30:58;;;;;;;15.10;2.47;;;8.80;99.90;;;;;;5055779;28;20139;-89
2021/10/22 08:33:26;;;;;;;18.65;2.35;;;8.90;99.90;;;;;;5067485;28;20072;-89
2021/10/22 08:35:57;;;;;;;18.02;2.17;;;8.80;99.90;;;;;;5059651;28;20043;-89
2021/10/22 08:38:28;;;;;;;11.93;2.72;;;9.50;99.90;;;;;;5055451;28;20132;-89
2021/10/22 08:40:57;;;;;;;15.27;2.30;;;9.30;99.90;;;;;;5062021;28;20044;-89
2021/10/22 08:43:25;;;;;;;13.35;2.50;;;9.20;99.90;;;;;;5066103;28;20040;-90
2021/10/22 08:46:02;;;;;;;14.90;2.10;;;9.40;99.90;;;;;;5094411;28;20052;-90
2021/10/22 08:48:29;;;;;;;19.33;2.70;;;9.40;99.90;;;;;;5080078;28;20051;-89
2021/10/22 08:50:56;;;;;;;21.90;2.88;;;9.20;99.90;;;;;;5059990;28;20447;-89
2021/10/22 08:53:24;;;;;;;18.58;2.92;;;9.60;99.90;;;;;;5049925;28;20728;-89
2021/10/22 08:55:52;;;;;;;15.10;2.97;;;9.50;99.90;;;;;;5079701;28;20044;-89
2021/10/22 08:58:19;;;;;;;14.15;2.10;;;9.80;99.90;;;;;;5079131;28;20048;-88
2021/10/22 09:00:47;;;;;;;10.05;1.70;;;9.50;99.90;;;;;;5061979;28;20079;-90
2021/10/22 09:03:18;;;;;;;12.27;2.50;;;9.70;99.90;;;;;;5051817;28;20428;-89
2021/10/22 09:06:00;;;;;;;11.93;1.98;;;10.30;99.90;;;;;;5069239;28;20077;-88
2021/10/22 09:08:35;;;;;;;13.60;1.92;;;;;;;;;;5070222;28;20102;-89
2021/10/22 09:11:03;;;;;;;13.43;1.92;;;;;;;;;;5058888;28;20075;-88
2021/10/22 09:13:36;;;;;;;7.65;2.15;;;;;;;;;;5068036;28;20048;-88
2021/10/22 09:16:23;;;;;;;15.13;1.88;;;;;;;;;;5060099;28;20047;-89
2021/10/22 09:18:51;;;;;;;14.88;2.15;;;;;;;;;;5070781;28;20055;-89
2021/10/22 09:21:29;;;;;;;7.43;1.60;;;;;;;;;;5076453;28;20048;-89
2021/10/22 09:24:15;;;;;;;11.55;1.73;;;;;;;;;;5056994;28;20496;-88
2021/10/22 09:26:53;;;;;;;13.70;3.97;;;;;;;;;;5075633;28;20053;-88
2021/10/22 09:29:21;;;;;;;11.77;1.90;;;;;;;;;;5058304;28;20068;-88
2021/10/22 09:31:49;;;;;;;13.60;1.92;;;;;;;;;;5057856;28;20048;-88
2021/10/22 09:34:29;;;;;;;18.05;3.05;;;;;;;;;;5046340;28;20143;-89
2021/10/22 09:37:11;;;;;;;9.70;2.22;;;;;;;;;;5059574;28;20131;-89
2021/10/22 09:39:39;;;;;;;10.57;2.63;;;;;;;;;;5059274;28;20736;-89
2021/10/22 09:42:14;;;;;;;17.55;2.25;;;;;;;;;;5071068;28;20562;-89
2021/10/22 09:44:42;;;;;;;22.35;2.55;;;;;;;;;;5064390;28;20491;-90
2021/10/22 09:47:09;;;;;;;13.70;2.03;;;;;;;;;;5079088;28;20044;-91
2021/10/22 09:49:41;;;;;;;19.33;2.25;;;;;;;;;;5078196;28;20094;-91
2021/10/22 09:52:17;;;;;;;10.98;1.60;;;;;;;;;;5076377;28;20109;-90
2021/10/22 09:54:46;;;;;;;16.25;2.40;;;;;;;;;;5070745;28;20505;-90
2021/10/22 09:57:15;;;;;;;14.90;2.25;;;;;;;;;;5058502;28;20052;-89
2021/10/22 09:59:44;;;;;;;14.25;3.22;;;;;;;;;;5057887;28;20049;-90
2021/10/22 10:02:11;;;;;;;15.07;2.28;;;;;;;;;;5057912;28;20094;-90
2021/10/22 10:04:39;;;;;;;14.32;2.50;;;;;;;;;;5074396;28;20498;-89
2021/10/22 10:07:09;;;;;;;9.88;2.33;;;;;;;;;;5079239;28;20048;-91
2021/10/22 10:09:54;;;;;;;8.15;2.08;;;;;;;;;;5079593;28;20093;-91
2021/10/22 10:12:21;;;;;;;9.65;2.22;;;;;;;;;;5059980;28;20044;-91
2021/10/22 10:14:48;;;;;;;15.55;2.17;;;;;;;;;;5075215;28;20063;-91
2021/10/22 10:17:16;;;;;;;14.85;1.92;;;;;;;;;;5079582;28;20048;-91
2021/10/22 10:19:45;;;;;;;8.55;1.90;;;;;;;;;;5079351;28;20491;-91
2021/10/22 10:22:13;;;;;;;11.15;2.20;;;;;;;;;;5078517;28;20048;-92
2021/10/22 10:24:42;;;;;;;15.45;2.55;;;;;;;;;;5077957;28;20055;-91
2021/10/22 10:27:25;;;;;;;14.50;2.85;;;;;;;;;;5079714;28;20075;-91
2021/10/22 10:30:00;;;;;;;9.88;2.05;;;;;;;;;;5078674;28;20477;-89
2021/10/22 10:32:29;;;;;;;20.38;2.97;;;;;;;;;;5071734;28;20837;-90
2021/10/22 10:35:01;;;;;;;13.38;2.88;;;;;;;;;;5057416;28;20075;-90
2021/10/22 10:37:36;;;;;;;17.50;2.67;;;;;;;;;;5060807;28;20055;-92
2021/10/22 10:40:10;;;;;;;6.70;2.10;;;;;;;;;;5062563;28;20045;-89
2021/10/22 10:42:44;;;;;;;10.35;1.65;;;;;;;;;;5058961;28;20045;-92
2021/10/22 10:45:37;;;;;;;6.45;1.83;;;;;;;;;;5086908;28;20056;-92
2021/10/22 10:48:17;;;;;;;3.63;1.00;;;;;;;;;;5079629;28;20079;-93
2021/10/22 10:50:55;;;;;;;2.80;1.10;;;;;;;;;;5079357;28;20052;-92
2021/10/22 10:53:36;;;;;;;2.70;1.02;;;;;;;;;;5075285;28;20049;-93
2021/10/22 10:56:06;;;;;;;3.88;1.05;;;;;;;;;;5059410;28;20052;-95
2021/10/22 10:58:44;;;;;;;4.40;1.95;;;;;;;;;;5058669;28;20056;-92
2021/10/22 11:01:23;;;;;;;3.20;0.80;;;;;;;;;;5059373;28;20481;-93
2021/10/22 11:03:51;;;;;;;2.55;0.68;;;;;;;;;;5055756;28;20056;-91
2021/10/22 11:06:38;;;;;;;0.85;0.50;;;;;;;;;;5058943;28;20049;-92
2021/10/22 11:09:44;;;;;;;4.22;0.60;;;;;;;;;;5090176;28;20093;-91
2021/10/22 11:12:12;;;;;;;3.25;0.50;;;;;;;;;;5081507;28;20515;-93
2021/10/22 11:14:48;;;;;;;2.20;0.77;;;;;;;;;;5072446;28;20561;-92
2021/10/22 11:17:26;;;;;;;4.38;1.83;;;;;;;;;;5057880;28;20495;-92
2021/10/22 11:19:56;;;;;;;4.65;1.13;;;;;;;;;;5057888;28;20049;-92
2021/10/22 11:22:26;;;;;;;2.80;0.90;;;;;;;;;;5073941;28;20403;-91
2021/10/22 11:24:53;;;;;;;1.58;0.90;;;;;;;;;;5076000;28;20404;-92
2021/10/22 11:27:22;;;;;;;3.55;1.00;;;;;;;;;;5078163;28;20093;-91
2021/10/22 11:29:53;;;;;;;3.00;0.80;;;;;;;;;;5077882;28;20465;-92
2021/10/22 11:32:22;;;;;;;3.40;0.63;;;;;;;;;;5076378;28;20048;-91
2021/10/22 11:34:58;;;;;;;0.95;0.60;;;;;;;;;;5073762;28;20044;-91
2021/10/22 11:37:31;;;;;;;2.88;0.90;;;;;;;;;;5077501;28;20048;-92
2021/10/22 11:40:03;;;;;;;8.50;0.80;;;;;;;;;;5072980;28;20048;-91
2021/10/22 11:42:31;;;;;;;3.10;0.93;;;;;;;;;;5077202;28;20056;-91
2021/10/22 11:45:11;;;;;;;6.60;1.13;;;;;;;;;;5074991;28;20529;-92
2021/10/22 11:47:46;;;;;;;2.75;1.02;;;;;;;;;;5078334;28;20052;-93
2021/10/22 11:50:37;;;;;;;4.68;0.93;;;;;;;;;;5078241;28;20139;-92
2021/10/22 11:53:12;;;;;;;5.43;0.90;;;;;;;;;;5073783;28;20055;-92
2021/10/22 11:56:02;;;;;;;7.05;1.27;;;;;;;;;;5076645;28;20078;-91
2021/10/22 11:58:43;;;;;;;2.05;0.95;;;;;;;;;;5095636;28;20743;-93
2021/10/22 12:01:15;;;;;;;5.88;0.80;;;;;;;;;;5078477;28;20051;-91
2021/10/22 12:03:55;;;;;;;2.00;1.10;;;;;;;;;;5075497;28;20090;-92
2021/10/22 12:06:27;;;;;;;1.60;0.60;;;;;;;;;;5080645;28;20044;-89
2021/10/22 12:08:57;;;;;;;5.10;0.73;;;;;;;;;;5072959;28;20055;-91
2021/10/22 12:11:29;;;;;;;1.50;0.50;;;;;;;;;;5059264;28;20071;-90
2021/10/22 12:14:00;;;;;;;4.57;0.50;;;;;;;;;;5069413;28;20071;-91
2021/10/22 12:16:31;;;;;;;4.85;0.75;;;;;;;;;;5055216;28;20051;-92
2021/10/22 12:18:59;;;;;;;5.35;0.60;;;;;;;;;;5072190;28;20098;-92
2021/10/22 12:21:30;;;;;;;1.63;0.30;;;;;;;;;;5067069;28;20043;-93
2021/10/22 12:23:59;;;;;;;3.13;0.65;;;;;;;;;;5064658;28;20055;-91
2021/10/22 12:26:35;;;;;;;0.85;0.50;;;;;;;;;;5052872;28;20056;-85
2021/10/22 12:29:07;;;;;;;3.28;0.55;;;;;;;;;;5081968;28;20591;-93
2021/10/22 12:31:39;;;;;;;2.72;0.60;;;;;;;;;;5081222;28;20123;-93
2021/10/22 12:34:11;;;;;;;3.92;0.60;;;;;;;;;;5051747;28;20045;-86
2021/10/22 12:36:46;;;;;;;3.83;0.68;;;;;;;;;;5078629;28;20144;-94
2021/10/22 12:39:52;;;;;;;1.38;0.63;;;;;;;;;;5080700;28;20044;-92
2021/10/22 12:42:36;;;;;;;4.90;0.80;;;;;;;;;;5096068;28;20052;-94
2021/10/22 12:45:21;;;;;;;3.40;0.60;;;;;;;;;;5096100;28;20101;-93
2021/10/22 12:47:51;;;;;;;1.48;0.60;;;;;;;;;;5079151;28;20422;-94
2021/10/22 12:50:28;;;;;;;0.85;0.45;;;;;;;;;;5078663;28;20123;-93
2021/10/22 12:53:03;;;;;;;3.30;0.68;;;;;;;;;;5077061;28;20060;-90
2021/10/22 12:55:37;;;;;;;2.13;0.35;;;;;;;;;;5075883;28;20050;-91
2021/10/22 12:58:25;;;;;;;0.95;0.30;;;;;;;;;;5066434;28;20442;-90
2021/10/22 13:04:24;;;;;;;1.00;0.30;;;;;;;;;;5078059;28;20081;-92
2021/10/22 13:07:10;;;;;;;4.80;0.65;;;;;;;;;;5060069;28;20041;-93
2021/10/22 13:10:13;;;;;;;5.60;0.73;;;;;;;;;;5066555;28;20051;-91
2021/10/22 13:12:47;;;;;;;4.07;0.67;;;;;;;;;;5077579;28;20078;-91
2021/10/22 13:20:20;;;;;;;7.38;0.80;;;;;;;;;;5069908;28;20309;-91
2021/10/22 13:20:58;;;;;;;2.90;0.60;;;;;;;;;;5093943;28;20384;-90
2021/10/22 13:23:27;;;;;;;3.63;0.47;;;;;;;;;;5060429;28;20467;-91
2021/10/22 13:26:13;;;;;;;2.55;0.60;;;;;;;;;;5039996;28;20049;-90
2021/10/22 13:28:48;;;;;;;1.90;1.17;;;;;;;;;;5056424;28;20052;-92
2021/10/22 13:31:21;;;;;;;4.32;0.60;;;;;;;;;;5056778;28;20115;-90
2021/10/22 13:33:48;;;;;;;2.65;0.98;;;;;;;;;;5064656;28;20048;-91
2021/10/22 13:36:16;;;;;;;2.60;0.85;;;;;;;;;;5098271;28;20040;-90
2021/10/22 13:38:44;;;;;;;1.17;0.57;;;;;;;;;;5070030;28;20090;-93
2021/10/22 13:41:11;;;;;;;5.53;0.90;;;;;;;;;;5063267;28;20381;-92
2021/10/22 13:47:03;;;;;;;2.67;0.90;;;;;;;;;;5081647;28;20039;-92
2021/10/22 13:49:46;;;;;;;4.93;0.98;;;;;;;;;;5063567;28;20049;-93
2021/10/22 13:55:43;;;;;;;3.70;0.70;;;;;;;;;;5096620;28;20066;-91
2021/10/22 13:58:18;;;;;;;6.82;0.85;;;;;;;;;;5084323;28;20052;-93
2021/10/22 14:04:19;;;;;;;3.63;0.52;;;;;;;;;;5095466;28;20477;-92
2021/10/22 14:06:48;;;;;;;1.77;0.45;;;;;;;;;;5079761;28;20051;-92
2021/10/22 14:09:15;;;;;;;5.13;1.20;;;;;;;;;;5073889;28;20048;-92
2021/10/22 14:11:54;;;;;;;2.75;0.90;;;;;;;;;;5070322;28;20086;-92
2021/10/22 14:14:42;;;;;;;2.28;0.68;;;;;;;;;;5090955;28;20106;-91
2021/10/22 14:20:12;;;;;;;2.60;0.85;;;;;;;;;;5084626;28;20717;-91
2021/10/22 14:31:14;;;;;;;5.93;0.57;;;;;;;;;;5093996;28;20049;-90
2021/10/22 14:33:42;;;;;;;4.75;0.77;;;;;;;;;;5073891;28;20465;-90
2021/10/22 14:36:14;;;;;;;8.73;0.90;;;;;;;;;;5065928;28;20069;-90
2021/10/22 14:38:51;;;;;;;5.28;0.88;;;;;;;;;;5084708;28;20044;-92
2021/10/22 14:41:20;;;;;;;9.38;0.90;;;;;;;;;;5077028;28;20102;-93
2021/10/22 14:43:54;;;;;;;3.22;0.45;;;;;;;;;;5071309;28;20135;-91
2021/10/22 14:46:28;;;;;;;4.43;0.63;;;;;;;;;;5087831;28;20052;-93
2021/10/22 14:49:17;;;;;;;3.50;1.08;;;;;;;;;;5090847;28;20060;-92
2021/10/22 14:52:03;;;;;;;3.05;0.60;;;;;;;;;;5062951;28;20049;-92
2021/10/22 14:54:36;;;;;;;2.33;0.70;;;;;;;;;;5061144;28;20422;-93
2021/10/22 14:57:08;;;;;;;3.00;0.75;;;;;;;;;;5084426;28;20054;-92
2021/10/22 14:59:38;;;;;;;1.98;0.77;;;;;;;;;;5068682;28;20084;-92
2021/10/22 15:02:26;;;;;;;2.70;0.77;;;;;;;;;;5058123;28;20062;-90
2021/10/22 15:04:56;;;;;;;4.93;1.45;;;;;;;;;;5077661;28;20511;-91
2021/10/22 15:07:23;;;;;;;7.05;0.90;;;;;;;;;;5060369;28;20135;-91
2021/10/22 15:09:56;;;;;;;5.40;1.02;;;;;;;;;;5069827;28;20052;-89
2021/10/22 15:12:36;;;;;;;4.43;0.80;;;;;;;;;;5058690;28;20053;-90
2021/10/22 15:15:06;;;;;;;4.25;1.15;;;;;;;;;;5085239;28;20506;-89
2021/10/22 15:17:33;;;;;;;8.02;0.93;;;;;;;;;;5072195;28;20479;-91
2021/10/22 15:20:03;;;;;;;3.35;0.88;;;;;;;;;;5072912;28;20054;-91
2021/10/22 15:22:32;;;;;;;4.90;0.70;;;;;;;;;;5059039;28;20089;-90
2021/10/22 15:25:08;;;;;;;5.38;1.05;;;;;;;;;;5067525;28;20549;-90
2021/10/22 15:27:43;;;;;;;3.65;0.80;;;;;;;;;;5044228;28;20044;-88
2021/10/22 15:30:17;;;;;;;5.07;1.45;;;;;;;;;;5082941;28;20516;-89
2021/10/22 15:32:51;;;;;;;2.85;0.60;;;;;;;;;;5063205;28;20047;-89
2021/10/22 15:35:22;;;;;;;6.35;0.90;;;;;;;;;;5084467;28;20040;-90
2021/10/22 15:37:59;;;;;;;13.02;1.50;;;;;;;;;;5067758;28;20039;-90
2021/10/22 15:40:34;;;;;;;1.52;0.60;;;;;;;;;;5067193;28;20067;-91
2021/10/22 15:43:21;;;;;;;5.32;0.85;;;;;;;;;;5082042;28;20383;-90
2021/10/22 15:45:58;;;;;;;5.60;0.70;;;;;;;;;;5060077;28;20053;-88
2021/10/22 15:48:38;;;;;;;4.82;0.60;;;;;;;;;;5067854;28;20641;-88
2021/10/22 15:51:23;;;;;;;4.82;0.60;;;;;;;;;;5067364;28;20051;-90
2021/10/22 15:54:20;;;;;;;4.93;0.82;;;;;;;;;;5066446;28;20055;-90
2021/10/22 15:57:02;;;;;;;2.95;0.68;;;;;;;;;;5073030;28;20040;-92
2021/10/22 15:59:38;;;;;;;2.67;0.82;;;;;;;;;;5068152;28;20039;-91
2021/10/22 16:02:08;;;;;;;6.70;1.00;;;;;;;;;;5045764;28;20040;-91
2021/10/22 16:04:46;;;;;;;5.78;0.80;;;;;;;;;;5069063;28;20075;-92
2021/10/22 16:14:15;;;;;;;1.90;0.65;;;;;;;;;;5084045;28;20043;-90
2021/10/22 16:17:06;;;;;;;7.40;1.00;;;;;;;;;;5069361;28;20048;-91
2021/10/22 16:20:10;;;;;;;1.17;0.57;;;;;;;;;;5070209;28;20040;-91
2021/10/22 16:22:43;;;;;;;6.60;0.70;;;;;;;;;;5068685;28;20127;-90
2021/10/22 16:25:16;;;;;;;1.52;0.43;;;;;;;;;;5074356;28;20132;-90
2021/10/22 16:27:48;;;;;;;5.50;1.00;;;;;;;;;;5073002;28;20062;-89
2021/10/22 16:30:25;;;;;;;6.15;1.00;;;;;;;;;;5073675;28;20044;-92
2021/10/22 16:33:19;;;;;;;2.05;0.88;;;;;;;;;;5070417;28;20048;-92
2021/10/22 16:35:57;;;;;;;1.48;0.60;;;;;;;;;;5067044;28;20075;-91
2021/10/22 16:38:35;;;;;;;4.45;0.88;;;;;;;;;;5069176;28;20427;-91
2021/10/22 16:41:16;;;;;;;4.35;1.05;;;;;;;;;;5083192;28;20075;-91
2021/10/22 16:43:59;;;;;;;1.65;0.85;;;;;;;;;;5057976;28;20115;-89
2021/10/22 16:46:38;;;;;;;6.80;1.00;;;;;;;;;;5065375;28;20079;-89
2021/10/22 16:49:11;;;;;;;3.30;0.77;;;;;;;;;;5064417;28;20439;-90
2021/10/22 16:51:43;;;;;;;2.65;0.80;;;;;;;;;;5047615;28;20051;-89
2021/10/22 16:54:18;;;;;;;5.63;1.27;;;;;;;;;;5061026;28;20127;-89
2021/10/22 16:56:52;;;;;;;5.90;1.08;;;;;;;;;;5069615;28;20044;-89
2021/10/22 16:59:37;;;;;;;1.75;0.70;;;;;;;;;;5070720;28;20135;-91
2021/10/22 17:02:06;;;;;;;5.40;0.50;;;;;;;;;;5060983;28;20405;-91
2021/10/22 17:04:54;;;;;;;1.02;0.57;;;;;;;;;;5073709;28;20579;-90
2021/10/22 17:07:24;;;;;;;4.68;0.82;;;;;;;;;;5061590;28;20132;-90
2021/10/22 17:09:59;;;;;;;6.88;0.63;;;;;;;;;;5072718;28;20048;-90
2021/10/22 17:12:42;;;;;;;10.32;0.80;;;;;;;;;;5072150;28;20127;-91
2021/10/22 17:15:17;;;;;;;4.90;0.88;;;;;;;;;;5051450;28;20045;-91